createdAt,value
2023-01-07T00:02:54.585Z,76.20
2023-01-07T00:06:07.087Z,75.79
2023-01-07T00:09:17.762Z,76.14
2023-01-07T00:12:25.945Z,75.97
2023-01-07T00:15:34.299Z,76.47
2023-01-07T00:18:44.479Z,76.15
2023-01-07T00:21:55.045Z,76.36
2023-01-07T00:25:03.322Z,76.19
2023-01-07T00:28:11.722Z,75.86
2023-01-07T00:31:25.533Z,75.09
2023-01-07T00:34:34.399Z,75.01
2023-01-07T00:37:52.296Z,75.95
2023-01-07T00:41:00.660Z,76.65
2023-01-07T00:44:10.238Z,76.37
2023-01-07T00:47:18.435Z,76.65
2023-01-07T00:50:30.376Z,76.43
2023-01-07T00:53:40.182Z,75.95
2023-01-07T00:56:48.492Z,76.20
2023-01-07T00:59:57.426Z,75.73
2023-01-07T01:03:06.488Z,75.79
2023-01-07T01:06:17.037Z,75.36
2023-01-07T01:09:27.716Z,74.95
2023-01-07T01:12:36.433Z,76.40
2023-01-07T01:15:46.111Z,77.12
2023-01-07T01:18:54.344Z,77.60
2023-01-07T01:22:02.637Z,77.00
2023-01-07T01:25:15.117Z,77.24
2023-01-07T01:28:23.325Z,77.30
2023-01-07T01:31:31.982Z,77.18
2023-01-07T01:34:40.273Z,77.04
2023-01-07T01:37:48.631Z,76.40
2023-01-07T01:40:58.225Z,76.17
2023-01-07T01:44:45.178Z,75.98
2023-01-07T01:48:06.237Z,75.81
2023-01-07T01:51:19.568Z,76.21
2023-01-07T01:54:29.250Z,76.19
2023-01-07T01:57:41.249Z,75.76
2023-01-07T02:00:52.464Z,75.99
2023-01-07T02:04:05.617Z,75.93
2023-01-07T02:07:18.386Z,76.07
2023-01-07T02:10:33.184Z,75.76
2023-01-07T02:14:04.351Z,76.11
2023-01-07T02:17:24.603Z,75.83
2023-01-07T02:20:57.380Z,75.89
2023-01-07T02:24:54.758Z,76.39
2023-01-07T02:28:33.128Z,76.08
2023-01-07T02:32:15.694Z,76.42
2023-01-07T02:35:46.476Z,76.52
2023-01-07T02:39:13.219Z,76.36
2023-01-07T02:42:33.570Z,76.13
2023-01-07T02:50:30.590Z,76.01
2023-01-07T02:53:41.719Z,75.55
2023-01-07T02:57:21.161Z,76.71
2023-01-07T03:00:57.485Z,77.31
2023-01-07T03:04:28.695Z,77.64
2023-01-07T03:07:56.069Z,78.45
2023-01-07T03:11:08.682Z,77.78
2023-01-07T03:14:21.660Z,77.25
2023-01-07T03:17:41.126Z,77.42
2023-01-07T03:20:57.264Z,77.23
2023-01-07T03:24:09.306Z,77.23
2023-01-07T03:27:23.175Z,77.34
2023-01-07T03:30:33.064Z,77.49
2023-01-07T03:33:50.343Z,78.62
2023-01-07T03:37:04.740Z,78.62
2023-01-07T03:40:15.503Z,78.32
2023-01-07T03:43:24.467Z,79.35
2023-01-07T03:46:35.917Z,79.14
2023-01-07T03:49:44.103Z,78.79
2023-01-07T03:52:52.291Z,79.75
2023-01-07T03:56:03.574Z,79.93
2023-01-07T03:59:12.159Z,79.60
2023-01-07T04:02:20.486Z,79.32
2023-01-07T04:05:29.362Z,79.15
2023-01-07T04:08:38.037Z,80.10
2023-01-07T04:11:48.278Z,81.01
2023-01-07T04:14:58.472Z,80.42
2023-01-07T04:18:08.617Z,80.55
2023-01-07T04:21:16.751Z,81.14
2023-01-07T04:24:24.971Z,80.92
2023-01-07T04:27:35.332Z,81.04
2023-01-07T04:30:44.288Z,81.20
2023-01-07T04:33:52.566Z,81.41
2023-01-07T04:37:01.295Z,82.36
2023-01-07T04:40:11.327Z,81.84
2023-01-07T04:43:21.586Z,81.92
2023-01-07T04:46:29.893Z,82.23
2023-01-07T04:49:39.406Z,82.40
2023-01-07T04:52:48.305Z,81.92
2023-01-07T04:55:57.022Z,82.65
2023-01-07T04:59:06.573Z,83.17
2023-01-07T05:02:14.861Z,83.20
2023-01-07T05:05:23.867Z,84.42
2023-01-07T05:08:32.288Z,84.28
2023-01-07T05:11:40.591Z,84.61
2023-01-07T05:14:50.762Z,84.13
2023-01-07T05:18:00.037Z,84.12
2023-01-07T05:21:10.489Z,84.53
2023-01-07T05:24:19.888Z,84.56
2023-01-07T05:27:28.121Z,84.56
2023-01-07T05:30:37.721Z,85.18
2023-01-07T05:33:46.004Z,84.30
2023-01-07T05:36:54.794Z,84.32
2023-01-07T05:40:02.922Z,84.86
2023-01-07T05:43:11.305Z,85.36
2023-01-07T05:46:21.229Z,84.94
2023-01-07T05:49:29.576Z,84.75
2023-01-07T05:52:37.799Z,85.53
2023-01-07T05:55:49.041Z,85.12
2023-01-07T05:58:59.634Z,84.94
2023-01-07T06:02:11.873Z,86.13
2023-01-07T06:05:19.977Z,85.64
2023-01-07T06:08:28.069Z,84.91
2023-01-07T06:11:36.182Z,84.65
2023-01-07T06:14:44.271Z,84.56
2023-01-07T06:17:53.703Z,85.48
2023-01-07T06:21:01.930Z,86.25
2023-01-07T06:24:11.427Z,85.32
2023-01-07T06:27:19.691Z,85.25
2023-01-07T06:30:28.081Z,84.95
2023-01-07T06:33:38.316Z,85.10
2023-01-07T06:36:46.472Z,85.51
2023-01-07T06:39:54.677Z,85.53
2023-01-07T06:43:03.094Z,85.86
2023-01-07T06:46:12.802Z,86.11
2023-01-07T06:49:22.329Z,86.15
2023-01-07T06:52:30.653Z,86.88
2023-01-07T06:55:39.009Z,86.84
2023-01-07T06:58:47.132Z,86.16
2023-01-07T07:01:55.494Z,86.45
2023-01-07T07:05:05.532Z,86.11
2023-01-07T07:08:13.732Z,86.38
2023-01-07T07:11:21.863Z,85.48
2023-01-07T07:14:29.948Z,85.87
2023-01-07T07:17:38.016Z,85.67
2023-01-07T07:20:49.291Z,85.79
2023-01-07T07:23:57.667Z,85.25
2023-01-07T07:27:05.805Z,85.21
2023-01-07T07:30:15.690Z,85.82
2023-01-07T07:33:23.933Z,85.55
2023-01-07T07:36:34.024Z,85.78
2023-01-07T07:39:42.221Z,85.85
2023-01-07T07:43:11.714Z,85.79
2023-01-07T07:46:18.856Z,85.72
2023-01-07T07:49:26.989Z,85.45
2023-01-07T07:52:36.939Z,85.72
2023-01-07T07:55:46.526Z,84.87
2023-01-07T07:58:54.693Z,85.82
2023-01-07T08:02:02.912Z,84.91
2023-01-07T08:05:12.722Z,84.44
2023-01-07T08:08:22.508Z,84.69
2023-01-07T08:11:30.665Z,84.77
2023-01-07T08:14:38.729Z,84.63
2023-01-07T08:17:47.097Z,84.64
2023-01-07T08:20:55.851Z,83.29
2023-01-07T08:24:06.656Z,83.31
2023-01-07T08:27:15.111Z,83.70
2023-01-07T08:30:23.677Z,83.51
2023-01-07T08:33:37.319Z,84.05
2023-01-07T08:36:45.594Z,83.60
2023-01-07T08:39:55.192Z,82.95
2023-01-07T08:43:06.698Z,82.56
2023-01-07T08:46:14.887Z,82.43
2023-01-07T08:49:23.979Z,81.70
2023-01-07T08:52:32.059Z,82.38
2023-01-07T08:55:41.502Z,81.22
2023-01-07T08:58:49.833Z,79.78
2023-01-07T09:01:58.075Z,79.85
2023-01-07T09:05:08.198Z,78.77
2023-01-07T09:08:16.292Z,77.38
2023-01-07T09:11:25.805Z,77.67
2023-01-07T09:14:34.264Z,76.86
2023-01-07T09:17:42.378Z,76.05
2023-01-07T09:20:50.655Z,76.31
2023-01-07T09:23:58.857Z,75.08
2023-01-07T09:27:08.290Z,74.14
2023-01-07T09:30:16.901Z,72.76
2023-01-07T09:33:25.076Z,70.78
2023-01-07T09:36:33.638Z,70.64
2023-01-07T09:39:41.888Z,70.57
2023-01-07T09:43:01.926Z,70.11
2023-01-07T09:46:13.335Z,69.82
2023-01-07T09:49:26.986Z,68.40
2023-01-07T09:52:40.943Z,68.71
2023-01-07T09:56:10.737Z,67.55
2023-01-07T09:59:22.595Z,67.98
2023-01-07T10:02:45.188Z,67.04
2023-01-07T10:06:08.980Z,67.07
2023-01-07T10:09:36.659Z,66.92
2023-01-07T10:12:59.859Z,65.83
2023-01-07T10:16:21.145Z,64.95
2023-01-07T10:19:44.355Z,65.92
2023-01-07T10:23:00.372Z,65.24
2023-01-07T10:26:21.225Z,64.04
2023-01-07T10:29:36.997Z,64.29
2023-01-07T10:32:51.003Z,65.12
2023-01-07T10:36:16.569Z,63.95
2023-01-07T10:39:36.152Z,64.33
2023-01-07T10:42:55.231Z,64.12
2023-01-07T10:46:23.120Z,64.43
2023-01-07T10:49:55.703Z,64.75
2023-01-07T10:53:19.240Z,64.15
2023-01-07T10:56:33.121Z,64.38
2023-01-07T10:59:51.044Z,64.27
2023-01-07T11:03:00.845Z,63.77
2023-01-07T11:06:19.017Z,64.29
2023-01-07T11:09:32.923Z,64.26
2023-01-07T11:12:46.757Z,64.50
2023-01-07T11:16:04.405Z,64.01
2023-01-07T11:19:13.835Z,64.16
2023-01-07T11:22:37.523Z,64.88
2023-01-07T11:25:46.627Z,63.90
2023-01-07T11:28:57.065Z,63.00
2023-01-07T11:32:07.313Z,62.67
2023-01-07T11:35:23.120Z,62.40
2023-01-07T11:38:36.661Z,63.87
2023-01-07T11:41:56.375Z,63.46
2023-01-07T11:45:17.459Z,63.67
2023-01-07T11:48:31.160Z,64.22
2023-01-07T11:51:42.900Z,64.70
2023-01-07T11:54:53.230Z,64.25
2023-01-07T11:58:29.992Z,63.12
2023-01-07T12:01:30.898Z,63.27
2023-01-07T12:04:40.495Z,64.58
2023-01-07T12:07:51.183Z,62.86
2023-01-07T12:11:09.258Z,63.20
2023-01-07T12:14:27.825Z,63.92
2023-01-07T12:17:37.132Z,63.36
2023-01-07T12:21:26.733Z,64.67
2023-01-07T12:25:24.520Z,63.87
2023-01-07T12:28:54.399Z,63.38
2023-01-07T12:32:22.978Z,62.12
2023-01-07T12:35:36.629Z,61.55
2023-01-07T12:38:52.470Z,59.04
2023-01-07T12:42:10.210Z,54.78
2023-01-07T12:45:36.303Z,52.73
2023-01-07T12:49:02.470Z,51.13
2023-01-07T12:52:21.553Z,51.88
2023-01-07T12:55:35.779Z,55.11
2023-01-07T12:58:50.406Z,57.21
2023-01-07T13:02:18.191Z,59.33
2023-01-07T13:05:33.510Z,60.42
2023-01-07T13:08:51.379Z,61.57
2023-01-07T13:12:41.910Z,61.47
2023-01-07T13:15:52.901Z,61.28
2023-01-07T13:19:02.978Z,61.74
2023-01-07T13:22:21.265Z,61.52
2023-01-07T13:25:52.926Z,60.65
2023-01-07T13:29:26.936Z,60.48
2023-01-07T13:33:06.368Z,61.42
2023-01-07T13:36:31.567Z,62.07
2023-01-07T13:40:07.998Z,61.39
2023-01-07T13:43:41.076Z,61.84
2023-01-07T13:46:50.287Z,61.99
2023-01-07T13:50:03.364Z,61.20
2023-01-07T13:53:46.296Z,62.18
2023-01-07T13:56:54.756Z,62.38
2023-01-07T14:00:06.189Z,62.17
2023-01-07T14:03:43.410Z,59.49
2023-01-07T14:06:53.690Z,60.69
2023-01-07T14:10:03.343Z,60.58
2023-01-07T14:13:37.848Z,61.33
2023-01-07T14:16:56.788Z,61.15
2023-01-07T14:20:18.051Z,62.33
2023-01-07T14:23:39.145Z,61.20
2023-01-07T14:27:00.663Z,60.59
2023-01-07T14:30:21.642Z,62.14
2023-01-07T14:33:39.181Z,61.63
2023-01-07T14:37:17.429Z,61.37
2023-01-07T14:41:05.011Z,61.45
2023-01-07T14:44:31.605Z,62.91
2023-01-07T14:47:55.651Z,62.08
2023-01-07T14:51:54.875Z,63.91
2023-01-07T14:55:37.716Z,64.82
2023-01-07T14:59:26.197Z,65.42
2023-01-07T15:03:36.672Z,66.44
2023-01-07T15:06:46.440Z,66.86
2023-01-07T15:10:18.617Z,67.41
2023-01-07T15:13:46.134Z,67.34
2023-01-07T15:16:55.397Z,68.33
2023-01-07T15:20:10.290Z,68.51
2023-01-07T15:23:27.752Z,69.90
2023-01-07T15:26:50.268Z,69.89
2023-01-07T15:30:08.285Z,71.67
2023-01-07T15:33:39.092Z,71.71
2023-01-07T15:36:52.801Z,72.06
2023-01-07T15:40:02.156Z,72.42
2023-01-07T15:43:24.248Z,73.29
2023-01-07T15:46:34.424Z,73.83
2023-01-07T15:49:43.170Z,74.14
2023-01-07T15:52:56.683Z,74.83
2023-01-07T15:56:11.764Z,75.37
2023-01-07T15:59:28.042Z,75.73
2023-01-07T16:02:43.085Z,75.82
2023-01-07T16:05:53.508Z,76.21
2023-01-07T16:09:18.813Z,76.05
2023-01-07T16:12:34.072Z,77.06
2023-01-07T16:15:42.875Z,78.19
2023-01-07T16:18:56.627Z,78.36
2023-01-07T16:22:06.089Z,78.50
2023-01-07T16:25:30.850Z,79.05
2023-01-07T16:28:46.765Z,78.96
2023-01-07T16:31:56.582Z,79.12
2023-01-07T16:35:09.212Z,79.08
2023-01-07T16:38:21.061Z,79.18
2023-01-07T16:41:31.975Z,79.07
2023-01-07T16:45:02.381Z,78.85
2023-01-07T16:48:21.710Z,79.10
2023-01-07T16:51:40.623Z,79.39
2023-01-07T16:54:50.147Z,79.14
2023-01-07T16:58:00.022Z,78.81
2023-01-07T17:01:12.329Z,78.98
2023-01-07T17:04:27.815Z,79.17
2023-01-07T17:07:39.135Z,79.41
2023-01-07T17:10:59.083Z,80.15
2023-01-07T17:14:51.445Z,79.32
2023-01-07T17:18:30.621Z,80.44
2023-01-07T17:21:43.578Z,80.36
2023-01-07T17:24:52.052Z,80.02
2023-01-07T17:28:09.632Z,80.78
2023-01-07T17:31:19.913Z,80.78
2023-01-07T17:34:28.460Z,80.69
2023-01-07T17:37:37.369Z,79.55
2023-01-07T17:40:46.464Z,80.70
2023-01-07T17:43:53.689Z,80.81
2023-01-07T17:47:03.247Z,79.76
2023-01-07T17:50:14.991Z,80.24
2023-01-07T17:53:27.265Z,80.15
2023-01-07T17:56:35.791Z,80.35
2023-01-07T17:59:47.882Z,80.65
2023-01-07T18:02:59.225Z,81.44
2023-01-07T18:06:18.622Z,81.50
2023-01-07T18:09:27.767Z,80.24
2023-01-07T18:12:36.332Z,80.97
2023-01-07T18:15:44.773Z,81.00
2023-01-07T18:18:56.556Z,80.66
2023-01-07T18:22:04.611Z,81.67
2023-01-07T18:25:19.857Z,81.49
2023-01-07T18:28:28.150Z,81.16
2023-01-07T18:31:43.050Z,81.06
2023-01-07T18:34:53.481Z,80.49
2023-01-07T18:38:02.427Z,80.97
2023-01-07T18:41:10.880Z,80.17
2023-01-07T18:44:19.638Z,80.71
2023-01-07T18:47:27.821Z,81.04
2023-01-07T18:50:41.199Z,81.53
2023-01-07T18:53:49.473Z,81.55
2023-01-07T18:56:58.024Z,82.62
2023-01-07T19:00:08.118Z,83.41
2023-01-07T19:03:17.787Z,83.49
2023-01-07T19:06:28.477Z,82.64
2023-01-07T19:09:37.416Z,82.34
2023-01-07T19:12:46.809Z,83.24
2023-01-07T19:15:55.286Z,82.51
2023-01-07T19:19:04.023Z,82.90
2023-01-07T19:22:15.698Z,82.90
2023-01-07T19:25:24.162Z,83.08
2023-01-07T19:28:32.940Z,82.45
2023-01-07T19:31:45.519Z,82.34
2023-01-07T19:34:54.132Z,83.10
2023-01-07T19:38:03.821Z,83.45
2023-01-07T19:41:15.532Z,83.38
2023-01-07T19:44:23.733Z,82.83
2023-01-07T19:47:32.467Z,83.82
2023-01-07T19:50:40.736Z,82.94
2023-01-07T19:53:54.115Z,83.40
2023-01-07T19:57:02.551Z,83.47
2023-01-07T20:00:12.732Z,84.17
2023-01-07T20:03:20.948Z,83.64
2023-01-07T20:06:31.979Z,83.60
2023-01-07T20:09:41.657Z,83.23
2023-01-07T20:12:50.221Z,83.59
2023-01-07T20:16:04.612Z,84.09
2023-01-07T20:19:13.668Z,83.87
2023-01-07T20:22:21.959Z,83.05
2023-01-07T20:25:31.752Z,82.59
2023-01-07T20:28:40.407Z,82.82
2023-01-07T20:31:50.073Z,82.94
2023-01-07T20:34:58.506Z,83.86
2023-01-07T20:38:09.358Z,84.11
2023-01-07T20:41:21.422Z,84.00
2023-01-07T20:44:29.940Z,83.80
2023-01-07T20:47:38.095Z,83.98
2023-01-07T20:50:46.337Z,82.67
2023-01-07T20:53:54.702Z,82.42
2023-01-07T20:57:04.557Z,83.39
2023-01-07T21:00:14.444Z,82.81
2023-01-07T21:03:22.681Z,82.45
2023-01-07T21:06:31.480Z,82.54
2023-01-07T21:09:40.288Z,82.44
2023-01-07T21:12:50.992Z,82.18
2023-01-07T21:16:04.130Z,81.70
2023-01-07T21:19:12.470Z,80.97
2023-01-07T21:22:20.704Z,80.41
2023-01-07T21:25:29.219Z,80.91
2023-01-07T21:28:38.735Z,82.06
2023-01-07T21:31:46.941Z,81.74
2023-01-07T21:34:55.282Z,81.52
2023-01-07T21:38:03.503Z,81.17
2023-01-07T21:41:14.659Z,81.58
2023-01-07T21:44:24.180Z,81.35
2023-01-07T21:47:32.535Z,81.20
2023-01-07T21:50:40.815Z,80.75
2023-01-07T21:53:49.364Z,80.60
2023-01-07T21:56:57.784Z,80.66
2023-01-07T22:00:09.392Z,81.61
2023-01-07T22:03:23.485Z,80.97
2023-01-07T22:06:35.089Z,82.22
2023-01-07T22:09:43.849Z,82.03
2023-01-07T22:12:52.104Z,81.98
2023-01-07T22:16:01.649Z,82.24
2023-01-07T22:19:10.851Z,81.73
2023-01-07T22:22:20.932Z,81.56
2023-01-07T22:25:29.127Z,82.09
2023-01-07T22:28:38.552Z,81.59
2023-01-07T22:31:50.943Z,80.52
2023-01-07T22:34:59.469Z,80.47
2023-01-07T22:38:08.101Z,81.19
2023-01-07T22:41:16.666Z,81.14
2023-01-07T22:44:30.979Z,80.94
2023-01-07T22:47:46.258Z,80.80
2023-01-07T22:51:01.502Z,81.78
2023-01-07T22:54:12.511Z,81.95
2023-01-07T22:57:21.015Z,81.61
2023-01-07T23:00:47.941Z,81.93
2023-01-07T23:03:57.551Z,81.39
2023-01-07T23:07:06.224Z,82.00
2023-01-07T23:10:14.526Z,81.40
2023-01-07T23:13:23.855Z,81.45
2023-01-07T23:16:32.122Z,81.40
2023-01-07T23:19:41.767Z,82.18
2023-01-07T23:22:50.065Z,82.58
2023-01-07T23:25:58.459Z,82.09
2023-01-07T23:29:06.989Z,81.93
2023-01-07T23:32:15.290Z,82.56
2023-01-07T23:35:24.855Z,81.82
2023-01-07T23:38:33.085Z,81.78
2023-01-07T23:41:41.267Z,81.61
2023-01-07T23:44:49.474Z,81.84
2023-01-07T23:47:57.745Z,81.99
2023-01-07T23:51:11.894Z,82.12
2023-01-07T23:54:20.166Z,81.92
2023-01-07T23:57:29.355Z,82.57
